sensor_id;sensor_type;location;lat;lon;timestamp;pressure;altitude;pressure_sealevel;temperature;humidity
61037;BME280;57313;47.040;15.498;2022-09-09T00:01:23;96787.59;;;14.37;100.00
61037;BME280;57313;47.040;15.498;2022-09-09T00:03:55;96784.28;;;14.35;100.00
61037;BME280;57313;47.040;15.498;2022-09-09T00:06:30;96791.97;;;14.27;100.00
61037;BME280;57313;47.040;15.498;2022-09-09T00:09:02;96787.66;;;14.26;100.00
61037;BME280;57313;47.040;15.498;2022-09-09T00:11:38;96790.69;;;14.21;100.00
61037;BME280;57313;47.040;15.498;2022-09-09T00:14:16;96786.53;;;14.18;100.00
61037;BME280;57313;47.040;15.498;2022-09-09T00:16:50;96794.66;;;14.15;100.00
61037;BME280;57313;47.040;15.498;2022-09-09T00:19:23;96800.84;;;14.14;100.00
61037;BME280;57313;47.040;15.498;2022-09-09T00:22:02;96799.28;;;14.12;100.00
61037;BME280;57313;47.040;15.498;2022-09-09T00:24:40;96797.91;;;14.08;100.00
61037;BME280;57313;47.040;15.498;2022-09-09T00:27:16;96802.41;;;14.06;100.00
61037;BME280;57313;47.040;15.498;2022-09-09T00:29:52;96802.22;;;13.97;100.00
61037;BME280;57313;47.040;15.498;2022-09-09T00:32:21;96800.69;;;13.95;100.00
61037;BME280;57313;47.040;15.498;2022-09-09T00:34:50;96811.88;;;13.97;100.00
61037;BME280;57313;47.040;15.498;2022-09-09T00:37:22;96805.81;;;13.96;100.00
61037;BME280;57313;47.040;15.498;2022-09-09T00:39:53;96802.63;;;13.93;100.00
61037;BME280;57313;47.040;15.498;2022-09-09T00:42:25;96807.16;;;13.91;100.00
61037;BME280;57313;47.040;15.498;2022-09-09T00:44:58;96798.94;;;13.84;100.00
61037;BME280;57313;47.040;15.498;2022-09-09T00:47:39;96788.28;;;13.76;100.00
61037;BME280;57313;47.040;15.498;2022-09-09T00:50:17;96790.47;;;13.71;100.00
61037;BME280;57313;47.040;15.498;2022-09-09T00:52:59;96788.78;;;13.70;100.00
61037;BME280;57313;47.040;15.498;2022-09-09T00:55:36;96788.09;;;13.68;100.00
61037;BME280;57313;47.040;15.498;2022-09-09T00:58:09;96795.72;;;13.59;100.00
61037;BME280;57313;47.040;15.498;2022-09-09T01:00:42;96795.84;;;13.58;100.00
61037;BME280;57313;47.040;15.498;2022-09-09T01:03:20;96784.81;;;13.54;100.00
61037;BME280;57313;47.040;15.498;2022-09-09T01:05:56;96782.44;;;13.51;100.00
61037;BME280;57313;47.040;15.498;2022-09-09T01:08:46;96793.16;;;13.48;100.00
61037;BME280;57313;47.040;15.498;2022-09-09T01:11:21;96800.53;;;13.43;100.00
61037;BME280;57313;47.040;15.498;2022-09-09T01:13:55;96802.34;;;13.42;100.00
61037;BME280;57313;47.040;15.498;2022-09-09T01:16:26;96799.13;;;13.39;100.00
61037;BME280;57313;47.040;15.498;2022-09-09T01:18:56;96802.81;;;13.36;100.00
61037;BME280;57313;47.040;15.498;2022-09-09T01:21:33;96805.56;;;13.35;100.00
61037;BME280;57313;47.040;15.498;2022-09-09T01:24:20;96796.97;;;13.33;100.00
61037;BME280;57313;47.040;15.498;2022-09-09T01:26:51;96805.28;;;13.26;100.00
61037;BME280;57313;47.040;15.498;2022-09-09T01:29:21;96801.28;;;13.22;100.00
61037;BME280;57313;47.040;15.498;2022-09-09T01:31:54;96806.75;;;13.19;100.00
61037;BME280;57313;47.040;15.498;2022-09-09T01:34:24;96805.09;;;13.18;100.00
61037;BME280;57313;47.040;15.498;2022-09-09T01:36:56;96809.38;;;13.19;100.00
61037;BME280;57313;47.040;15.498;2022-09-09T01:39:26;96815.19;;;13.11;100.00
61037;BME280;57313;47.040;15.498;2022-09-09T01:41:55;96812.09;;;13.06;100.00
61037;BME280;57313;47.040;15.498;2022-09-09T01:44:23;96814.00;;;13.04;100.00
61037;BME280;57313;47.040;15.498;2022-09-09T01:46:51;96819.34;;;13.03;100.00
61037;BME280;57313;47.040;15.498;2022-09-09T01:49:19;96809.25;;;12.98;100.00
61037;BME280;57313;47.040;15.498;2022-09-09T01:51:50;96801.53;;;12.97;100.00
61037;BME280;57313;47.040;15.498;2022-09-09T01:54:19;96811.75;;;13.00;100.00
61037;BME280;57313;47.040;15.498;2022-09-09T01:56:58;96810.81;;;13.01;100.00
61037;BME280;57313;47.040;15.498;2022-09-09T01:59:42;96810.19;;;12.97;100.00
61037;BME280;57313;47.040;15.498;2022-09-09T02:02:13;96806.53;;;12.88;100.00
61037;BME280;57313;47.040;15.498;2022-09-09T02:04:45;96797.63;;;12.91;100.00
61037;BME280;57313;47.040;15.498;2022-09-09T02:07:28;96792.03;;;12.96;100.00
61037;BME280;57313;47.040;15.498;2022-09-09T02:10:02;96793.34;;;12.90;100.00
61037;BME280;57313;47.040;15.498;2022-09-09T02:12:40;96794.31;;;12.89;100.00
61037;BME280;57313;47.040;15.498;2022-09-09T02:15:18;96803.81;;;12.90;100.00
61037;BME280;57313;47.040;15.498;2022-09-09T02:17:50;96801.06;;;12.91;100.00
61037;BME280;57313;47.040;15.498;2022-09-09T02:20:20;96820.19;;;12.92;100.00
61037;BME280;57313;47.040;15.498;2022-09-09T02:22:50;96819.50;;;12.90;100.00
61037;BME280;57313;47.040;15.498;2022-09-09T02:25:20;96814.25;;;12.90;100.00
61037;BME280;57313;47.040;15.498;2022-09-09T02:27:51;96803.19;;;12.86;100.00
61037;BME280;57313;47.040;15.498;2022-09-09T02:30:19;96811.88;;;12.87;100.00
61037;BME280;57313;47.040;15.498;2022-09-09T02:32:49;96822.47;;;12.85;100.00
61037;BME280;57313;47.040;15.498;2022-09-09T02:35:21;96829.34;;;12.86;100.00
61037;BME280;57313;47.040;15.498;2022-09-09T02:37:53;96838.25;;;12.84;100.00
61037;BME280;57313;47.040;15.498;2022-09-09T02:40:21;96831.00;;;12.87;100.00
61037;BME280;57313;47.040;15.498;2022-09-09T02:42:50;96831.25;;;12.84;100.00
61037;BME280;57313;47.040;15.498;2022-09-09T02:45:22;96839.66;;;12.88;100.00
61037;BME280;57313;47.040;15.498;2022-09-09T02:47:56;96837.66;;;12.91;100.00
61037;BME280;57313;47.040;15.498;2022-09-09T02:50:33;96830.19;;;12.87;100.00
61037;BME280;57313;47.040;15.498;2022-09-09T02:53:07;96839.66;;;12.88;100.00
61037;BME280;57313;47.040;15.498;2022-09-09T02:55:41;96835.19;;;12.90;100.00
61037;BME280;57313;47.040;15.498;2022-09-09T02:58:13;96847.88;;;12.95;100.00
61037;BME280;57313;47.040;15.498;2022-09-09T03:00:42;96842.66;;;12.95;100.00
61037;BME280;57313;47.040;15.498;2022-09-09T03:03:10;96851.19;;;12.97;100.00
61037;BME280;57313;47.040;15.498;2022-09-09T03:05:38;96855.38;;;12.99;100.00
61037;BME280;57313;47.040;15.498;2022-09-09T03:08:05;96858.56;;;13.03;100.00
61037;BME280;57313;47.040;15.498;2022-09-09T03:10:34;96839.91;;;13.07;100.00
61037;BME280;57313;47.040;15.498;2022-09-09T03:13:01;96841.59;;;13.08;100.00
61037;BME280;57313;47.040;15.498;2022-09-09T03:15:30;96830.41;;;13.06;100.00
61037;BME280;57313;47.040;15.498;2022-09-09T03:17:58;96836.47;;;13.07;100.00
61037;BME280;57313;47.040;15.498;2022-09-09T03:20:27;96833.50;;;13.11;100.00
61037;BME280;57313;47.040;15.498;2022-09-09T03:22:55;96819.34;;;13.14;100.00
61037;BME280;57313;47.040;15.498;2022-09-09T03:25:24;96809.72;;;13.15;100.00
61037;BME280;57313;47.040;15.498;2022-09-09T03:27:52;96810.69;;;13.14;100.00
61037;BME280;57313;47.040;15.498;2022-09-09T03:30:19;96811.63;;;13.13;100.00
61037;BME280;57313;47.040;15.498;2022-09-09T03:32:49;96812.34;;;13.15;100.00
61037;BME280;57313;47.040;15.498;2022-09-09T03:35:16;96814.00;;;13.16;100.00
61037;BME280;57313;47.040;15.498;2022-09-09T03:37:44;96818.16;;;13.18;100.00
61037;BME280;57313;47.040;15.498;2022-09-09T03:40:12;96829.09;;;13.12;100.00
61037;BME280;57313;47.040;15.498;2022-09-09T03:42:40;96833.84;;;13.07;100.00
61037;BME280;57313;47.040;15.498;2022-09-09T03:45:09;96828.63;;;13.07;100.00
61037;BME280;57313;47.040;15.498;2022-09-09T03:47:37;96827.78;;;13.06;100.00
61037;BME280;57313;47.040;15.498;2022-09-09T03:50:08;96829.34;;;13.09;100.00
61037;BME280;57313;47.040;15.498;2022-09-09T03:52:36;96834.81;;;13.06;100.00
61037;BME280;57313;47.040;15.498;2022-09-09T03:55:04;96829.69;;;13.04;100.00
61037;BME280;57313;47.040;15.498;2022-09-09T03:57:32;96829.81;;;13.03;100.00
61037;BME280;57313;47.040;15.498;2022-09-09T04:00:00;96827.91;;;13.05;100.00
61037;BME280;57313;47.040;15.498;2022-09-09T04:02:27;96835.88;;;13.03;100.00
61037;BME280;57313;47.040;15.498;2022-09-09T04:04:54;96837.91;;;13.00;100.00
61037;BME280;57313;47.040;15.498;2022-09-09T04:07:23;96844.91;;;12.99;100.00
61037;BME280;57313;47.040;15.498;2022-09-09T04:09:51;96846.78;;;12.97;100.00
61037;BME280;57313;47.040;15.498;2022-09-09T04:12:18;96847.75;;;12.96;100.00
61037;BME280;57313;47.040;15.498;2022-09-09T04:14:45;96842.53;;;12.96;100.00
61037;BME280;57313;47.040;15.498;2022-09-09T04:17:13;96837.56;;;12.93;100.00
61037;BME280;57313;47.040;15.498;2022-09-09T04:19:40;96833.25;;;12.92;100.00
61037;BME280;57313;47.040;15.498;2022-09-09T04:22:07;96834.19;;;12.91;100.00
61037;BME280;57313;47.040;15.498;2022-09-09T04:24:36;96835.41;;;12.87;100.00
61037;BME280;57313;47.040;15.498;2022-09-09T04:27:04;96832.06;;;12.85;100.00
61037;BME280;57313;47.040;15.498;2022-09-09T04:29:31;96844.44;;;12.83;100.00
61037;BME280;57313;47.040;15.498;2022-09-09T04:31:58;96838.38;;;12.82;100.00
61037;BME280;57313;47.040;15.498;2022-09-09T04:34:26;96829.44;;;12.85;100.00
61037;BME280;57313;47.040;15.498;2022-09-09T04:36:53;96835.66;;;12.84;100.00
61037;BME280;57313;47.040;15.498;2022-09-09T04:39:20;96831.34;;;12.83;100.00
61037;BME280;57313;47.040;15.498;2022-09-09T04:41:49;96833.75;;;12.86;100.00
61037;BME280;57313;47.040;15.498;2022-09-09T04:44:17;96832.06;;;12.85;100.00
61037;BME280;57313;47.040;15.498;2022-09-09T04:46:44;96820.78;;;12.84;100.00
61037;BME280;57313;47.040;15.498;2022-09-09T04:49:12;96815.44;;;12.86;100.00
61037;BME280;57313;47.040;15.498;2022-09-09T04:51:41;96812.00;;;12.85;100.00
61037;BME280;57313;47.040;15.498;2022-09-09T04:54:08;96817.69;;;12.90;100.00
61037;BME280;57313;47.040;15.498;2022-09-09T04:56:35;96809.84;;;12.90;100.00
61037;BME280;57313;47.040;15.498;2022-09-09T04:59:05;96805.81;;;12.86;100.00
61037;BME280;57313;47.040;15.498;2022-09-09T05:01:33;96819.72;;;12.87;100.00
61037;BME280;57313;47.040;15.498;2022-09-09T05:04:00;96818.28;;;12.83;100.00
61037;BME280;57313;47.040;15.498;2022-09-09T05:06:28;96823.06;;;12.78;100.00
61037;BME280;57313;47.040;15.498;2022-09-09T05:08:55;96831.00;;;12.76;100.00
61037;BME280;57313;47.040;15.498;2022-09-09T05:11:24;96825.91;;;12.74;100.00
61037;BME280;57313;47.040;15.498;2022-09-09T05:13:52;96817.13;;;12.75;100.00
61037;BME280;57313;47.040;15.498;2022-09-09T05:16:22;96830.53;;;12.82;100.00
61037;BME280;57313;47.040;15.498;2022-09-09T05:18:50;96826.25;;;12.81;100.00
61037;BME280;57313;47.040;15.498;2022-09-09T05:21:21;96825.44;;;12.81;100.00
61037;BME280;57313;47.040;15.498;2022-09-09T05:23:49;96821.63;;;12.85;100.00
61037;BME280;57313;47.040;15.498;2022-09-09T05:26:19;96819.97;;;12.84;100.00
61037;BME280;57313;47.040;15.498;2022-09-09T05:28:48;96818.88;;;12.86;100.00
61037;BME280;57313;47.040;15.498;2022-09-09T05:31:17;96823.41;;;12.84;100.00
61037;BME280;57313;47.040;15.498;2022-09-09T05:33:47;96828.63;;;12.84;100.00
61037;BME280;57313;47.040;15.498;2022-09-09T05:36:17;96822.34;;;12.87;100.00
61037;BME280;57313;47.040;15.498;2022-09-09T05:38:44;96830.66;;;12.92;100.00
61037;BME280;57313;47.040;15.498;2022-09-09T05:41:12;96826.84;;;12.96;100.00
61037;BME280;57313;47.040;15.498;2022-09-09T05:43:41;96818.78;;;12.99;100.00
61037;BME280;57313;47.040;15.498;2022-09-09T05:46:10;96819.25;;;13.04;100.00
61037;BME280;57313;47.040;15.498;2022-09-09T05:48:39;96807.00;;;13.05;100.00
61037;BME280;57313;47.040;15.498;2022-09-09T05:51:10;96829.22;;;13.10;100.00
61037;BME280;57313;47.040;15.498;2022-09-09T05:53:38;96827.19;;;13.14;100.00
61037;BME280;57313;47.040;15.498;2022-09-09T05:56:07;96812.94;;;13.18;100.00
61037;BME280;57313;47.040;15.498;2022-09-09T05:58:35;96822.78;;;13.26;100.00
61037;BME280;57313;47.040;15.498;2022-09-09T06:01:06;96834.78;;;13.28;100.00
61037;BME280;57313;47.040;15.498;2022-09-09T06:03:34;96837.78;;;13.35;100.00
61037;BME280;57313;47.040;15.498;2022-09-09T06:06:03;96840.72;;;13.42;100.00
61037;BME280;57313;47.040;15.498;2022-09-09T06:08:34;96839.41;;;13.48;100.00
61037;BME280;57313;47.040;15.498;2022-09-09T06:11:03;96843.91;;;13.57;100.00
61037;BME280;57313;47.040;15.498;2022-09-09T06:13:31;96849.59;;;13.62;100.00
61037;BME280;57313;47.040;15.498;2022-09-09T06:15:59;96840.44;;;13.68;100.00
61037;BME280;57313;47.040;15.498;2022-09-09T06:18:27;96844.31;;;13.73;100.00
61037;BME280;57313;47.040;15.498;2022-09-09T06:20:56;96839.44;;;13.80;100.00
61037;BME280;57313;47.040;15.498;2022-09-09T06:23:24;96837.97;;;13.87;100.00
61037;BME280;57313;47.040;15.498;2022-09-09T06:26:00;96841.88;;;13.93;100.00
61037;BME280;57313;47.040;15.498;2022-09-09T06:28:28;96836.25;;;13.97;100.00
61037;BME280;57313;47.040;15.498;2022-09-09T06:30:59;96835.06;;;14.02;100.00
61037;BME280;57313;47.040;15.498;2022-09-09T06:33:30;96836.09;;;14.10;100.00
61037;BME280;57313;47.040;15.498;2022-09-09T06:35:57;96834.75;;;14.16;100.00
61037;BME280;57313;47.040;15.498;2022-09-09T06:38:25;96830.94;;;14.20;100.00
61037;BME280;57313;47.040;15.498;2022-09-09T06:40:56;96830.56;;;14.25;100.00
61037;BME280;57313;47.040;15.498;2022-09-09T06:43:24;96833.59;;;14.30;100.00
61037;BME280;57313;47.040;15.498;2022-09-09T06:45:56;96834.06;;;14.35;100.00
61037;BME280;57313;47.040;15.498;2022-09-09T06:48:24;96844.28;;;14.38;100.00
61037;BME280;57313;47.040;15.498;2022-09-09T06:50:59;96842.94;;;14.44;100.00
61037;BME280;57313;47.040;15.498;2022-09-09T06:53:27;96838.25;;;14.47;100.00
61037;BME280;57313;47.040;15.498;2022-09-09T06:55:59;96839.41;;;14.54;100.00
61037;BME280;57313;47.040;15.498;2022-09-09T06:58:26;96841.56;;;14.61;100.00
61037;BME280;57313;47.040;15.498;2022-09-09T07:01:02;96830.69;;;14.65;100.00
61037;BME280;57313;47.040;15.498;2022-09-09T07:03:29;96843.13;;;14.73;100.00
61037;BME280;57313;47.040;15.498;2022-09-09T07:05:57;96841.91;;;14.77;100.00
61037;BME280;57313;47.040;15.498;2022-09-09T07:08:25;96842.34;;;14.82;100.00
61037;BME280;57313;47.040;15.498;2022-09-09T07:10:53;96842.22;;;14.84;100.00
61037;BME280;57313;47.040;15.498;2022-09-09T07:13:25;96846.34;;;14.86;100.00
61037;BME280;57313;47.040;15.498;2022-09-09T07:15:53;96838.34;;;14.88;100.00
61037;BME280;57313;47.040;15.498;2022-09-09T07:18:20;96855.50;;;14.92;100.00
61037;BME280;57313;47.040;15.498;2022-09-09T07:20:57;96847.50;;;14.94;100.00
61037;BME280;57313;47.040;15.498;2022-09-09T07:23:25;96844.50;;;14.98;100.00
61037;BME280;57313;47.040;15.498;2022-09-09T07:25:52;96835.41;;;15.02;100.00
61037;BME280;57313;47.040;15.498;2022-09-09T07:28:20;96833.19;;;15.07;100.00
61037;BME280;57313;47.040;15.498;2022-09-09T07:30:55;96835.56;;;15.11;100.00
61037;BME280;57313;47.040;15.498;2022-09-09T07:33:22;96842.44;;;15.12;100.00
61037;BME280;57313;47.040;15.498;2022-09-09T07:35:51;96837.91;;;15.14;100.00
61037;BME280;57313;47.040;15.498;2022-09-09T07:38:19;96845.78;;;15.14;100.00
61037;BME280;57313;47.040;15.498;2022-09-09T07:40:47;96843.97;;;15.14;100.00
61037;BME280;57313;47.040;15.498;2022-09-09T07:43:14;96861.53;;;15.14;100.00
61037;BME280;57313;47.040;15.498;2022-09-09T07:45:43;96848.41;;;15.14;100.00
61037;BME280;57313;47.040;15.498;2022-09-09T07:48:13;96860.41;;;15.16;100.00
61037;BME280;57313;47.040;15.498;2022-09-09T07:50:41;96859.06;;;15.22;100.00
61037;BME280;57313;47.040;15.498;2022-09-09T07:53:08;96847.75;;;15.21;100.00
61037;BME280;57313;47.040;15.498;2022-09-09T07:55:35;96847.03;;;15.19;100.00
61037;BME280;57313;47.040;15.498;2022-09-09T07:58:02;96860.72;;;15.23;100.00
61037;BME280;57313;47.040;15.498;2022-09-09T08:00:30;96860.59;;;15.24;100.00
61037;BME280;57313;47.040;15.498;2022-09-09T08:02:57;96857.13;;;15.24;100.00
61037;BME280;57313;47.040;15.498;2022-09-09T08:05:27;96853.53;;;15.25;100.00
61037;BME280;57313;47.040;15.498;2022-09-09T08:07:55;96880.06;;;15.32;100.00
61037;BME280;57313;47.040;15.498;2022-09-09T08:10:23;96869.31;;;15.35;100.00
61037;BME280;57313;47.040;15.498;2022-09-09T08:12:50;96866.56;;;15.36;100.00
61037;BME280;57313;47.040;15.498;2022-09-09T08:15:38;96871.13;;;15.34;100.00
61037;BME280;57313;47.040;15.498;2022-09-09T08:18:05;96874.56;;;15.35;100.00
61037;BME280;57313;47.040;15.498;2022-09-09T08:20:36;96880.66;;;15.35;100.00
61037;BME280;57313;47.040;15.498;2022-09-09T08:23:03;96872.78;;;15.35;100.00
61037;BME280;57313;47.040;15.498;2022-09-09T08:25:30;96874.88;;;15.41;100.00
61037;BME280;57313;47.040;15.498;2022-09-09T08:27:58;96879.59;;;15.48;100.00
61037;BME280;57313;47.040;15.498;2022-09-09T08:30:25;96875.84;;;15.50;100.00
61037;BME280;57313;47.040;15.498;2022-09-09T08:32:53;96881.41;;;15.57;100.00
61037;BME280;57313;47.040;15.498;2022-09-09T08:35:20;96877.78;;;15.58;100.00
61037;BME280;57313;47.040;15.498;2022-09-09T08:37:53;96892.06;;;15.65;100.00
61037;BME280;57313;47.040;15.498;2022-09-09T08:40:26;96895.22;;;15.69;100.00
61037;BME280;57313;47.040;15.498;2022-09-09T08:42:57;96886.41;;;15.70;100.00
61037;BME280;57313;47.040;15.498;2022-09-09T08:45:32;96892.47;;;15.70;100.00
61037;BME280;57313;47.040;15.498;2022-09-09T08:48:12;96880.31;;;15.69;100.00
61037;BME280;57313;47.040;15.498;2022-09-09T08:50:41;96880.75;;;15.74;100.00
61037;BME280;57313;47.040;15.498;2022-09-09T08:53:16;96882.16;;;15.78;100.00
61037;BME280;57313;47.040;15.498;2022-09-09T08:55:47;96883.69;;;15.81;100.00
61037;BME280;57313;47.040;15.498;2022-09-09T08:58:19;96886.03;;;15.84;100.00
61037;BME280;57313;47.040;15.498;2022-09-09T09:01:12;96885.47;;;15.90;100.00
61037;BME280;57313;47.040;15.498;2022-09-09T09:03:50;96872.75;;;15.95;100.00
61037;BME280;57313;47.040;15.498;2022-09-09T09:06:33;96873.19;;;16.01;100.00
61037;BME280;57313;47.040;15.498;2022-09-09T09:09:12;96879.94;;;16.03;100.00
61037;BME280;57313;47.040;15.498;2022-09-09T09:11:45;96886.75;;;16.06;100.00
61037;BME280;57313;47.040;15.498;2022-09-09T09:14:18;96877.34;;;16.13;100.00
61037;BME280;57313;47.040;15.498;2022-09-09T09:16:51;96874.84;;;16.21;100.00
61037;BME280;57313;47.040;15.498;2022-09-09T09:19:20;96880.22;;;16.29;100.00
61037;BME280;57313;47.040;15.498;2022-09-09T09:21:54;96870.97;;;16.35;100.00
61037;BME280;57313;47.040;15.498;2022-09-09T09:24:30;96878.16;;;16.43;100.00
61037;BME280;57313;47.040;15.498;2022-09-09T09:27:12;96869.44;;;16.52;100.00
61037;BME280;57313;47.040;15.498;2022-09-09T09:29:41;96874.00;;;16.60;100.00
61037;BME280;57313;47.040;15.498;2022-09-09T09:32:33;96869.50;;;16.70;100.00
61037;BME280;57313;47.040;15.498;2022-09-09T09:35:10;96868.13;;;16.76;100.00
61037;BME280;57313;47.040;15.498;2022-09-09T09:37:41;96865.34;;;16.87;100.00
61037;BME280;57313;47.040;15.498;2022-09-09T09:40:30;96868.78;;;16.97;100.00
61037;BME280;57313;47.040;15.498;2022-09-09T09:43:00;96865.59;;;17.03;100.00
61037;BME280;57313;47.040;15.498;2022-09-09T09:45:32;96870.56;;;17.07;100.00
61037;BME280;57313;47.040;15.498;2022-09-09T09:48:02;96866.13;;;17.07;100.00
61037;BME280;57313;47.040;15.498;2022-09-09T09:50:34;96867.22;;;17.14;100.00
61037;BME280;57313;47.040;15.498;2022-09-09T09:53:04;96864.09;;;17.29;100.00
61037;BME280;57313;47.040;15.498;2022-09-09T09:55:35;96868.38;;;17.30;100.00
61037;BME280;57313;47.040;15.498;2022-09-09T09:58:03;96854.66;;;17.36;100.00
61037;BME280;57313;47.040;15.498;2022-09-09T10:00:33;96855.03;;;17.41;100.00
61037;BME280;57313;47.040;15.498;2022-09-09T10:03:01;96862.03;;;17.50;100.00
61037;BME280;57313;47.040;15.498;2022-09-09T10:05:30;96869.19;;;17.58;100.00
61037;BME280;57313;47.040;15.498;2022-09-09T10:08:04;96862.53;;;17.64;100.00
61037;BME280;57313;47.040;15.498;2022-09-09T10:10:44;96855.38;;;17.74;100.00
61037;BME280;57313;47.040;15.498;2022-09-09T10:13:20;96854.19;;;17.86;100.00
61037;BME280;57313;47.040;15.498;2022-09-09T10:16:03;96847.38;;;17.93;100.00
61037;BME280;57313;47.040;15.498;2022-09-09T10:18:45;96855.72;;;18.07;100.00
61037;BME280;57313;47.040;15.498;2022-09-09T10:21:21;96848.66;;;18.07;100.00
61037;BME280;57313;47.040;15.498;2022-09-09T10:24:23;96861.06;;;18.15;100.00
61037;BME280;57313;47.040;15.498;2022-09-09T10:27:00;96848.88;;;18.14;98.66
61037;BME280;57313;47.040;15.498;2022-09-09T10:29:47;96830.47;;;18.22;100.00
61037;BME280;57313;47.040;15.498;2022-09-09T10:32:35;96838.47;;;18.30;100.00
61037;BME280;57313;47.040;15.498;2022-09-09T10:35:10;96837.16;;;18.35;100.00
61037;BME280;57313;47.040;15.498;2022-09-09T10:37:50;96834.75;;;18.41;100.00
61037;BME280;57313;47.040;15.498;2022-09-09T10:40:29;96834.81;;;18.50;100.00
61037;BME280;57313;47.040;15.498;2022-09-09T10:43:08;96831.41;;;18.57;100.00
61037;BME280;57313;47.040;15.498;2022-09-09T10:45:48;96834.09;;;18.65;100.00
61037;BME280;57313;47.040;15.498;2022-09-09T10:48:26;96834.38;;;18.62;100.00
61037;BME280;57313;47.040;15.498;2022-09-09T10:51:08;96826.31;;;18.64;100.00
61037;BME280;57313;47.040;15.498;2022-09-09T10:53:49;96825.84;;;18.69;100.00
61037;BME280;57313;47.040;15.498;2022-09-09T10:56:21;96824.06;;;18.69;100.00
61037;BME280;57313;47.040;15.498;2022-09-09T10:58:53;96821.13;;;18.72;100.00
61037;BME280;57313;47.040;15.498;2022-09-09T11:01:25;96818.47;;;18.72;100.00
61037;BME280;57313;47.040;15.498;2022-09-09T11:04:03;96810.72;;;18.71;100.00
61037;BME280;57313;47.040;15.498;2022-09-09T11:06:39;96809.88;;;18.70;100.00
61037;BME280;57313;47.040;15.498;2022-09-09T11:09:15;96813.88;;;18.74;100.00
61037;BME280;57313;47.040;15.498;2022-09-09T11:11:51;96812.19;;;18.73;100.00
61037;BME280;57313;47.040;15.498;2022-09-09T11:14:29;96810.25;;;18.75;100.00
61037;BME280;57313;47.040;15.498;2022-09-09T11:17:09;96817.84;;;18.78;100.00
61037;BME280;57313;47.040;15.498;2022-09-09T11:19:39;96810.91;;;18.77;99.71
61037;BME280;57313;47.040;15.498;2022-09-09T11:22:16;96817.84;;;18.78;100.00
61037;BME280;57313;47.040;15.498;2022-09-09T11:24:50;96807.47;;;18.77;100.00
61037;BME280;57313;47.040;15.498;2022-09-09T11:27:21;96810.09;;;18.77;100.00
61037;BME280;57313;47.040;15.498;2022-09-09T11:30:19;96795.56;;;18.73;100.00
61037;BME280;57313;47.040;15.498;2022-09-09T11:33:34;96791.41;;;18.70;100.00
61037;BME280;57313;47.040;15.498;2022-09-09T11:36:19;96780.72;;;18.72;100.00
61037;BME280;57313;47.040;15.498;2022-09-09T11:38:52;96777.59;;;18.76;100.00
61037;BME280;57313;47.040;15.498;2022-09-09T11:41:21;96781.09;;;18.77;100.00
61037;BME280;57313;47.040;15.498;2022-09-09T11:43:50;96772.84;;;18.80;100.00
61037;BME280;57313;47.040;15.498;2022-09-09T11:46:21;96776.53;;;18.87;100.00
61037;BME280;57313;47.040;15.498;2022-09-09T11:48:59;96765.97;;;18.87;100.00
61037;BME280;57313;47.040;15.498;2022-09-09T11:51:28;96770.28;;;18.88;100.00
61037;BME280;57313;47.040;15.498;2022-09-09T11:53:58;96778.53;;;18.93;100.00
61037;BME280;57313;47.040;15.498;2022-09-09T11:56:30;96763.53;;;18.94;90.75
61037;BME280;57313;47.040;15.498;2022-09-09T11:59:00;96769.31;;;18.97;100.00
61037;BME280;57313;47.040;15.498;2022-09-09T12:01:35;96762.25;;;19.06;100.00
61037;BME280;57313;47.040;15.498;2022-09-09T12:04:26;96757.34;;;19.11;100.00
61037;BME280;57313;47.040;15.498;2022-09-09T12:06:58;96754.88;;;19.18;100.00
61037;BME280;57313;47.040;15.498;2022-09-09T12:12:30;96732.47;;;19.22;98.94
61037;BME280;57313;47.040;15.498;2022-09-09T12:15:02;96738.22;;;19.26;95.99
61037;BME280;57313;47.040;15.498;2022-09-09T12:17:41;96741.53;;;19.28;100.00
61037;BME280;57313;47.040;15.498;2022-09-09T12:20:14;96735.28;;;19.29;100.00
61037;BME280;57313;47.040;15.498;2022-09-09T12:22:54;96728.84;;;19.31;100.00
61037;BME280;57313;47.040;15.498;2022-09-09T12:25:31;96724.06;;;19.27;100.00
61037;BME280;57313;47.040;15.498;2022-09-09T12:28:05;96737.09;;;19.28;100.00
61037;BME280;57313;47.040;15.498;2022-09-09T12:30:43;96742.06;;;19.31;100.00
61037;BME280;57313;47.040;15.498;2022-09-09T12:33:17;96737.09;;;19.36;100.00
61037;BME280;57313;47.040;15.498;2022-09-09T12:35:49;96733.66;;;19.36;99.34
61037;BME280;57313;47.040;15.498;2022-09-09T12:38:25;96728.53;;;19.34;100.00
61037;BME280;57313;47.040;15.498;2022-09-09T12:40:56;96717.47;;;19.39;99.31
61037;BME280;57313;47.040;15.498;2022-09-09T12:43:26;96720.13;;;19.39;94.86
61037;BME280;57313;47.040;15.498;2022-09-09T12:45:56;96717.81;;;19.44;98.87
61037;BME280;57313;47.040;15.498;2022-09-09T12:48:31;96709.06;;;19.44;100.00
61037;BME280;57313;47.040;15.498;2022-09-09T12:50:59;96698.50;;;19.44;100.00
61037;BME280;57313;47.040;15.498;2022-09-09T12:53:29;96704.59;;;19.44;100.00
61037;BME280;57313;47.040;15.498;2022-09-09T12:55:58;96712.38;;;19.46;100.00
61037;BME280;57313;47.040;15.498;2022-09-09T12:58:27;96713.88;;;19.48;100.00
61037;BME280;57313;47.040;15.498;2022-09-09T13:00:56;96714.19;;;19.45;100.00
61037;BME280;57313;47.040;15.498;2022-09-09T13:03:24;96710.88;;;19.43;100.00
61037;BME280;57313;47.040;15.498;2022-09-09T13:05:58;96710.88;;;19.43;100.00
61037;BME280;57313;47.040;15.498;2022-09-09T13:08:26;96714.84;;;19.39;100.00